Time;durP1;ratioP1;P1;durP2;ratioP2;P2;SDS_P1;SDS_P2;PMS_P1;PMS_P2;Temp;Humidity;BMP_temperature;BMP_pressure;BME280_temperature;BME280_humidity;BME280_pressure;Samples;Min_cycle;Max_cycle;Signal;HPM_P1;HPM_P2
2023/03/07 00:01:42;;;;;;;7.38;4.47;;;3.50;81.90;;;;;;4997435;28;20038;-77
2023/03/07 00:04:08;;;;;;;6.85;3.60;;;3.50;82.00;;;;;;4996031;28;20042;-76
2023/03/07 00:06:33;;;;;;;5.80;3.90;;;3.60;81.90;;;;;;4991742;28;20022;-75
2023/03/07 00:09:00;;;;;;;7.28;4.22;;;3.50;81.80;;;;;;4993240;28;20029;-74
2023/03/07 00:11:27;;;;;;;7.30;4.45;;;3.50;81.70;;;;;;4992834;28;20019;-76
2023/03/07 00:13:54;;;;;;;6.32;3.95;;;3.50;81.70;;;;;;4976837;28;20027;-77
2023/03/07 00:16:22;;;;;;;6.95;3.83;;;3.50;81.90;;;;;;4992478;28;20037;-76
2023/03/07 00:18:48;;;;;;;6.22;3.38;;;3.50;81.80;;;;;;4992565;28;20022;-76
2023/03/07 00:21:17;;;;;;;7.75;4.68;;;3.50;81.80;;;;;;4993367;28;20041;-76
2023/03/07 00:23:44;;;;;;;10.30;5.10;;;3.50;81.80;;;;;;5019596;28;20038;-75
2023/03/07 00:26:13;;;;;;;8.85;4.82;;;3.50;81.80;;;;;;5012875;28;20080;-76
2023/03/07 00:28:39;;;;;;;6.57;3.92;;;3.50;81.80;;;;;;5027908;28;20022;-74
2023/03/07 00:31:08;;;;;;;7.32;4.13;;;3.50;81.90;;;;;;4997137;28;20034;-76
2023/03/07 00:33:34;;;;;;;6.40;4.00;;;3.50;81.80;;;;;;4977743;28;20035;-75
2023/03/07 00:36:14;;;;;;;7.72;4.47;;;3.50;81.90;;;;;;4974940;28;20026;-76
2023/03/07 00:38:41;;;;;;;8.15;4.65;;;3.50;81.80;;;;;;4973670;28;20046;-78
2023/03/07 00:41:17;;;;;;;7.88;4.50;;;3.50;81.70;;;;;;4975040;28;20656;-75
2023/03/07 00:43:43;;;;;;;10.27;4.10;;;3.50;81.70;;;;;;4976500;28;20034;-75
2023/03/07 00:46:09;;;;;;;8.23;4.53;;;3.50;81.60;;;;;;4989331;28;20110;-76
2023/03/07 00:48:36;;;;;;;7.35;3.85;;;3.40;81.50;;;;;;5007859;28;20049;-75
2023/03/07 00:51:03;;;;;;;5.53;3.47;;;3.50;81.70;;;;;;4999779;28;20415;-75
2023/03/07 00:53:29;;;;;;;5.82;3.17;;;3.40;81.60;;;;;;5018277;28;20044;-76
2023/03/07 00:55:57;;;;;;;6.53;3.72;;;3.40;81.60;;;;;;5045587;28;20026;-75
2023/03/07 00:58:24;;;;;;;5.75;3.35;;;3.30;81.70;;;;;;5031094;28;20014;-76
2023/03/07 01:00:50;;;;;;;6.55;4.38;;;3.30;81.80;;;;;;5014107;28;20164;-77
2023/03/07 01:03:15;;;;;;;7.72;4.47;;;3.30;81.90;;;;;;5013108;28;20030;-76
2023/03/07 01:05:41;;;;;;;7.70;4.68;;;3.30;82.00;;;;;;4995363;28;20031;-75
2023/03/07 01:08:07;;;;;;;8.50;4.28;;;3.30;82.00;;;;;;4973534;28;20027;-75
2023/03/07 01:10:33;;;;;;;6.18;3.67;;;3.20;82.00;;;;;;4973803;28;20030;-75
2023/03/07 01:12:59;;;;;;;5.53;3.40;;;3.20;82.20;;;;;;4988253;28;20022;-76
2023/03/07 01:15:25;;;;;;;5.03;3.17;;;3.30;82.50;;;;;;4973211;28;20165;-75
2023/03/07 01:17:51;;;;;;;5.22;3.25;;;3.30;82.50;;;;;;4973686;28;20066;-75
2023/03/07 01:20:16;;;;;;;4.97;3.00;;;3.30;82.50;;;;;;4975177;28;20023;-75
2023/03/07 01:22:42;;;;;;;7.53;4.57;;;3.30;82.50;;;;;;4995624;28;20050;-76
2023/03/07 01:25:09;;;;;;;6.55;4.18;;;3.30;82.40;;;;;;4972888;28;20030;-75
2023/03/07 01:27:34;;;;;;;6.03;4.13;;;3.20;82.30;;;;;;4971811;28;20562;-76
2023/03/07 01:30:00;;;;;;;6.28;3.60;;;3.20;82.50;;;;;;4974152;28;20066;-76
2023/03/07 01:32:26;;;;;;;5.50;2.85;;;3.30;82.60;;;;;;4977505;28;20364;-75
2023/03/07 01:34:51;;;;;;;5.57;3.40;;;3.20;82.70;;;;;;4977190;28;20491;-75
2023/03/07 01:37:18;;;;;;;6.53;3.53;;;3.30;82.60;;;;;;4977124;28;20038;-76
2023/03/07 01:39:43;;;;;;;5.63;3.50;;;3.30;82.60;;;;;;4977021;28;20550;-76
2023/03/07 01:42:09;;;;;;;5.60;3.65;;;3.30;82.40;;;;;;4993076;28;20035;-76
2023/03/07 01:45:02;;;;;;;6.85;4.05;;;3.30;82.10;;;;;;4977845;28;20027;-74
2023/03/07 01:47:28;;;;;;;8.65;3.25;;;3.30;82.40;;;;;;4977746;28;20502;-75
2023/03/07 01:49:54;;;;;;;5.32;3.42;;;3.30;81.60;;;;;;4975239;28;20039;-76
2023/03/07 01:52:41;;;;;;;4.68;3.25;;;3.30;81.40;;;;;;5001247;28;20093;-76
2023/03/07 01:55:12;;;;;;;5.63;2.88;;;3.30;81.30;;;;;;4973046;28;20365;-76
2023/03/07 01:57:41;;;;;;;7.63;3.85;;;3.30;81.10;;;;;;4993518;28;20427;-75
2023/03/07 02:00:10;;;;;;;6.05;4.05;;;3.30;80.80;;;;;;4996531;28;20022;-76
2023/03/07 02:02:38;;;;;;;8.55;5.13;;;3.30;80.60;;;;;;4998358;28;20505;-75
2023/03/07 02:05:18;;;;;;;9.40;5.88;;;3.30;80.40;;;;;;4996652;28;20038;-76
2023/03/07 02:07:48;;;;;;;10.10;5.93;;;3.30;80.10;;;;;;4995119;28;20030;-75
2023/03/07 02:10:17;;;;;;;9.95;5.75;;;3.30;80.00;;;;;;4994155;28;20101;-74
2023/03/07 02:12:44;;;;;;;8.15;4.93;;;3.30;79.90;;;;;;4994986;28;20467;-75
2023/03/07 02:15:11;;;;;;;8.65;4.72;;;3.30;80.00;;;;;;4993142;28;20038;-76
2023/03/07 02:17:38;;;;;;;9.30;5.22;;;3.30;80.00;;;;;;4976054;28;20069;-76
2023/03/07 02:20:25;;;;;;;9.05;5.13;;;3.30;80.00;;;;;;4977557;28;20069;-76
2023/03/07 02:22:53;;;;;;;5.85;3.58;;;3.30;80.10;;;;;;5010056;28;20391;-76
2023/03/07 02:25:40;;;;;;;8.13;3.97;;;3.30;80.20;;;;;;5030740;28;20076;-75
2023/03/07 02:28:09;;;;;;;6.53;3.95;;;3.30;80.30;;;;;;5050133;28;20086;-76
2023/03/07 02:30:36;;;;;;;7.60;4.25;;;3.30;80.20;;;;;;5036562;28;20029;-76
2023/03/07 02:33:02;;;;;;;7.32;4.00;;;3.30;80.10;;;;;;5018613;28;20038;-77
2023/03/07 02:35:28;;;;;;;7.55;3.92;;;3.30;80.10;;;;;;4992981;28;20030;-76
2023/03/07 02:38:03;;;;;;;6.07;3.80;;;3.30;80.10;;;;;;4993710;28;20042;-75
2023/03/07 02:40:31;;;;;;;7.53;3.55;;;3.30;80.10;;;;;;4984304;28;20053;-74
2023/03/07 02:43:00;;;;;;;7.78;4.50;;;3.30;80.10;;;;;;4977282;28;20023;-76
2023/03/07 02:45:26;;;;;;;6.38;3.53;;;3.30;80.00;;;;;;4993903;28;20030;-76
2023/03/07 02:47:51;;;;;;;6.13;4.00;;;3.30;80.00;;;;;;4983837;28;20030;-77
2023/03/07 02:50:17;;;;;;;6.20;3.88;;;3.30;79.90;;;;;;4977929;28;20484;-75
2023/03/07 02:52:43;;;;;;;7.70;4.10;;;3.30;79.90;;;;;;5009929;28;20042;-76
2023/03/07 02:55:09;;;;;;;6.68;4.20;;;3.30;79.80;;;;;;5025170;28;20470;-76
2023/03/07 02:57:35;;;;;;;9.57;5.10;;;3.30;79.70;;;;;;5024133;28;20026;-75
2023/03/07 03:00:04;;;;;;;9.10;5.10;;;3.30;79.70;;;;;;5018686;28;20037;-75
2023/03/07 03:02:29;;;;;;;9.07;4.93;;;3.30;79.80;;;;;;5010703;28;20019;-75
2023/03/07 03:04:55;;;;;;;7.93;5.22;;;3.30;79.80;;;;;;5004845;28;20032;-75
2023/03/07 03:07:20;;;;;;;7.25;4.05;;;3.30;79.70;;;;;;5004675;28;20044;-76
2023/03/07 03:09:46;;;;;;;6.35;4.38;;;3.30;79.70;;;;;;4999544;28;20093;-76
2023/03/07 03:12:11;;;;;;;7.30;4.07;;;3.30;79.80;;;;;;4997866;28;20088;-75
2023/03/07 03:14:37;;;;;;;5.55;3.85;;;3.30;79.80;;;;;;4995294;28;20106;-75
2023/03/07 03:17:03;;;;;;;8.13;3.90;;;3.30;79.80;;;;;;5009656;28;20109;-75
2023/03/07 03:19:28;;;;;;;6.13;4.00;;;3.30;79.70;;;;;;4991260;28;20074;-77
2023/03/07 03:21:55;;;;;;;8.88;4.53;;;3.30;79.60;;;;;;4995358;28;20501;-75
2023/03/07 03:24:21;;;;;;;8.10;4.60;;;3.30;79.50;;;;;;4999891;28;20034;-75
2023/03/07 03:26:46;;;;;;;7.47;4.05;;;3.30;79.40;;;;;;4994627;28;20101;-75
2023/03/07 03:29:12;;;;;;;7.85;4.65;;;3.30;79.50;;;;;;4995228;28;20023;-75
2023/03/07 03:31:37;;;;;;;8.75;5.45;;;3.30;79.50;;;;;;5010336;28;20034;-74
2023/03/07 03:34:04;;;;;;;8.07;4.93;;;3.30;79.40;;;;;;5009931;28;20050;-76
2023/03/07 03:36:30;;;;;;;9.73;5.50;;;3.30;79.30;;;;;;4995272;28;20019;-75
2023/03/07 03:38:57;;;;;;;7.18;4.32;;;3.30;79.30;;;;;;4993750;28;20029;-75
2023/03/07 03:41:23;;;;;;;7.53;4.00;;;3.30;79.50;;;;;;4995154;28;20517;-76
2023/03/07 03:43:50;;;;;;;7.60;4.30;;;3.30;79.50;;;;;;4995057;28;20053;-75
2023/03/07 03:46:18;;;;;;;7.43;4.47;;;3.30;79.50;;;;;;4994801;28;20384;-76
2023/03/07 03:48:44;;;;;;;11.85;5.38;;;3.30;79.50;;;;;;5008825;28;20081;-75
2023/03/07 03:51:15;;;;;;;9.13;5.13;;;3.30;79.20;;;;;;4998721;28;20022;-75
2023/03/07 03:53:41;;;;;;;6.57;4.20;;;3.30;79.10;;;;;;5013343;28;20099;-76
2023/03/07 03:56:12;;;;;;;6.50;3.97;;;3.30;79.20;;;;;;5001518;28;20029;-75
2023/03/07 03:58:39;;;;;;;7.47;4.55;;;3.30;79.40;;;;;;5009136;28;20503;-75
2023/03/07 04:01:10;;;;;;;6.00;3.65;;;3.30;79.40;;;;;;4993071;28;20117;-75
2023/03/07 04:03:43;;;;;;;5.55;3.10;;;3.30;79.40;;;;;;4994162;28;20026;-75
2023/03/07 04:06:11;;;;;;;6.47;3.50;;;3.30;79.40;;;;;;4993989;28;20085;-75
2023/03/07 04:08:38;;;;;;;9.57;5.25;;;3.30;79.30;;;;;;4995150;28;20034;-75
2023/03/07 04:11:04;;;;;;;8.38;4.30;;;3.30;79.10;;;;;;4996381;28;20030;-75
2023/03/07 04:13:31;;;;;;;9.60;4.32;;;3.30;79.10;;;;;;4992722;28;20057;-75
2023/03/07 04:15:56;;;;;;;8.93;4.55;;;3.30;79.10;;;;;;4995546;28;20029;-76
2023/03/07 04:18:23;;;;;;;7.65;4.68;;;3.30;79.10;;;;;;4997098;28;20022;-76
2023/03/07 04:20:50;;;;;;;10.18;5.28;;;3.30;79.00;;;;;;4993294;28;20027;-75
2023/03/07 04:23:17;;;;;;;8.63;5.70;;;3.30;78.90;;;;;;5014963;28;20104;-76
2023/03/07 04:25:47;;;;;;;8.00;4.50;;;3.30;78.90;;;;;;5017081;28;20022;-77
2023/03/07 04:28:13;;;;;;;7.00;3.95;;;3.30;79.00;;;;;;5044534;28;20025;-77
2023/03/07 04:30:38;;;;;;;8.73;4.43;;;3.30;79.00;;;;;;5022279;28;20037;-76
2023/03/07 04:33:04;;;;;;;10.90;4.97;;;3.30;79.00;;;;;;4981970;28;20030;-76
2023/03/07 04:35:30;;;;;;;12.25;6.25;;;3.30;78.90;;;;;;4979997;28;20027;-76
2023/03/07 04:37:55;;;;;;;9.75;5.65;;;3.30;78.60;;;;;;4976090;28;20037;-75
2023/03/07 04:40:21;;;;;;;10.30;6.57;;;3.20;78.60;;;;;;4978985;28;20038;-76
2023/03/07 04:42:46;;;;;;;9.38;6.00;;;3.20;78.40;;;;;;4995336;28;20023;-75
2023/03/07 04:45:12;;;;;;;9.82;5.72;;;3.10;78.50;;;;;;5002541;28;20041;-76
2023/03/07 04:47:38;;;;;;;9.18;5.20;;;3.10;78.70;;;;;;5000948;28;20444;-76
2023/03/07 04:50:04;;;;;;;8.43;4.25;;;3.00;78.90;;;;;;4990743;28;20410;-74
2023/03/07 04:52:30;;;;;;;9.32;5.28;;;2.90;79.20;;;;;;5012987;28;20026;-75
2023/03/07 04:54:56;;;;;;;11.57;5.30;;;2.80;79.30;;;;;;4973592;28;20096;-75
2023/03/07 04:57:21;;;;;;;14.57;6.93;;;2.80;79.50;;;;;;4973779;28;20049;-75
2023/03/07 04:59:47;;;;;;;12.23;6.22;;;2.80;79.40;;;;;;4989012;28;20520;-76
2023/03/07 05:02:13;;;;;;;10.65;6.07;;;2.70;79.50;;;;;;4989586;28;20116;-76
2023/03/07 05:04:38;;;;;;;10.77;5.50;;;2.70;79.60;;;;;;4992938;28;20368;-76
2023/03/07 05:07:04;;;;;;;8.32;5.32;;;2.60;79.80;;;;;;4978184;28;20480;-75
2023/03/07 05:09:30;;;;;;;10.48;5.28;;;2.60;79.90;;;;;;4974480;28;20037;-76
2023/03/07 05:11:56;;;;;;;11.15;5.70;;;2.60;80.10;;;;;;4972208;28;20337;-76
2023/03/07 05:14:22;;;;;;;11.18;6.15;;;2.60;80.20;;;;;;4974260;28;20432;-75
2023/03/07 05:16:48;;;;;;;13.32;5.97;;;2.60;80.40;;;;;;4973857;28;20466;-77
2023/03/07 05:19:14;;;;;;;12.93;6.43;;;2.60;80.60;;;;;;4987788;28;20031;-77
2023/03/07 05:21:40;;;;;;;9.88;5.63;;;2.60;80.70;;;;;;4993915;28;20030;-76
2023/03/07 05:24:07;;;;;;;9.60;5.85;;;2.50;80.80;;;;;;4988908;28;20558;-76
2023/03/07 05:26:33;;;;;;;10.10;5.57;;;2.50;81.00;;;;;;4974611;28;20101;-76
2023/03/07 05:28:59;;;;;;;13.05;7.07;;;2.50;81.30;;;;;;4972406;28;20133;-75
2023/03/07 05:31:25;;;;;;;14.82;7.57;;;2.40;81.40;;;;;;4973372;28;20351;-77
2023/03/07 05:33:53;;;;;;;10.55;6.05;;;2.40;81.70;;;;;;4974081;28;20054;-75
2023/03/07 05:36:19;;;;;;;9.30;5.40;;;2.40;82.00;;;;;;4971565;28;20027;-76
2023/03/07 05:38:44;;;;;;;8.25;4.53;;;2.30;82.30;;;;;;4975557;28;20504;-77
2023/03/07 05:41:10;;;;;;;8.82;4.78;;;2.30;82.70;;;;;;4992515;28;20060;-75
2023/03/07 05:43:36;;;;;;;8.45;5.13;;;2.30;83.00;;;;;;4993041;28;20034;-76
2023/03/07 05:46:04;;;;;;;9.52;4.93;;;2.20;83.10;;;;;;4995686;28;20022;-76
2023/03/07 05:48:30;;;;;;;11.57;5.60;;;2.20;83.20;;;;;;4995821;28;20030;-75
2023/03/07 05:51:00;;;;;;;9.27;5.00;;;2.20;83.30;;;;;;5003623;28;20031;-74
2023/03/07 05:53:25;;;;;;;11.23;6.45;;;2.20;83.60;;;;;;5012108;28;20006;-75
2023/03/07 05:55:51;;;;;;;9.18;5.30;;;2.20;83.70;;;;;;5013206;28;20030;-74
2023/03/07 05:58:16;;;;;;;7.43;5.28;;;2.20;83.90;;;;;;5010991;28;20037;-75
2023/03/07 06:00:42;;;;;;;10.93;5.28;;;2.20;83.90;;;;;;5009927;28;20030;-75
2023/03/07 06:03:08;;;;;;;9.35;5.05;;;2.20;84.00;;;;;;5013757;28;20014;-74
2023/03/07 06:05:34;;;;;;;9.07;4.90;;;2.20;83.90;;;;;;5012990;28;20026;-73
2023/03/07 06:07:59;;;;;;;11.00;6.03;;;2.20;83.90;;;;;;5002958;28;20031;-77
2023/03/07 06:10:25;;;;;;;8.65;5.38;;;2.20;83.90;;;;;;4996415;28;20022;-75
2023/03/07 06:12:52;;;;;;;10.15;5.70;;;2.20;84.00;;;;;;4996074;28;20486;-76
2023/03/07 06:15:19;;;;;;;10.85;5.72;;;2.20;84.10;;;;;;4994914;28;20019;-77
2023/03/07 06:17:45;;;;;;;10.80;5.88;;;2.20;84.10;;;;;;4991190;28;20030;-76
2023/03/07 06:20:11;;;;;;;10.57;6.10;;;2.30;84.10;;;;;;5008838;28;20464;-78
2023/03/07 06:22:37;;;;;;;14.55;7.80;;;2.30;84.10;;;;;;5006797;28;20028;-75
2023/03/07 06:25:10;;;;;;;12.32;6.68;;;2.30;84.20;;;;;;4997676;28;20428;-77
2023/03/07 06:27:36;;;;;;;13.18;6.95;;;2.40;84.10;;;;;;4993557;28;20097;-76
2023/03/07 06:30:04;;;;;;;13.48;6.80;;;2.40;84.10;;;;;;4997623;28;20026;-74
2023/03/07 06:32:31;;;;;;;9.30;5.82;;;2.40;84.00;;;;;;4998114;28;20034;-76
2023/03/07 06:34:56;;;;;;;11.90;6.30;;;2.50;84.00;;;;;;4989743;28;20376;-76
2023/03/07 06:37:22;;;;;;;10.13;5.65;;;2.60;83.90;;;;;;5012674;28;20090;-76
2023/03/07 06:39:53;;;;;;;11.02;5.90;;;2.60;83.80;;;;;;4998838;28;20077;-76
2023/03/07 06:42:18;;;;;;;9.80;5.53;;;2.70;83.70;;;;;;5009578;28;20061;-75
2023/03/07 06:44:44;;;;;;;8.65;4.85;;;2.80;83.40;;;;;;5017158;28;20077;-75
2023/03/07 06:47:09;;;;;;;7.97;4.35;;;2.90;83.10;;;;;;5001501;28;20030;-76
2023/03/07 06:49:35;;;;;;;7.63;4.47;;;3.00;83.10;;;;;;4997875;28;20025;-77
2023/03/07 06:52:01;;;;;;;10.85;6.32;;;3.20;82.80;;;;;;5001992;28;20018;-76
2023/03/07 06:54:26;;;;;;;10.45;5.63;;;3.20;82.30;;;;;;5014097;28;20490;-75
2023/03/07 06:56:53;;;;;;;11.18;5.68;;;3.30;81.80;;;;;;5012615;28;20085;-76
2023/03/07 06:59:19;;;;;;;8.95;4.95;;;3.40;81.90;;;;;;4998044;28;20388;-77
2023/03/07 07:01:45;;;;;;;9.82;5.65;;;3.50;81.80;;;;;;4997778;28;20027;-76
2023/03/07 07:04:10;;;;;;;13.80;7.13;;;3.50;81.50;;;;;;4992351;28;20053;-77
2023/03/07 07:06:36;;;;;;;14.00;7.43;;;3.50;81.00;;;;;;5014067;28;20149;-75
2023/03/07 07:09:04;;;;;;;12.55;6.53;;;3.60;80.80;;;;;;4997683;28;20050;-76
2023/03/07 07:11:30;;;;;;;11.38;6.35;;;3.60;80.70;;;;;;4997267;28;20027;-76
2023/03/07 07:13:55;;;;;;;8.90;5.38;;;3.60;80.80;;;;;;4997594;28;20775;-76
2023/03/07 07:16:21;;;;;;;9.02;5.50;;;3.70;80.80;;;;;;4997022;28;20023;-76
2023/03/07 07:18:50;;;;;;;8.23;5.13;;;3.80;80.50;;;;;;5003647;28;20121;-76
2023/03/07 07:21:19;;;;;;;12.68;6.85;;;3.90;80.20;;;;;;5006657;28;20102;-75
2023/03/07 07:23:45;;;;;;;10.50;6.28;;;3.90;79.70;;;;;;5006077;28;20034;-76
2023/03/07 07:26:11;;;;;;;13.50;6.50;;;4.00;79.40;;;;;;5016289;28;20030;-76
2023/03/07 07:28:36;;;;;;;9.50;5.03;;;4.00;78.90;;;;;;5014782;28;20033;-75
2023/03/07 07:31:02;;;;;;;9.45;5.60;;;4.00;78.70;;;;;;5006247;28;20106;-75
2023/03/07 07:33:29;;;;;;;9.88;5.15;;;4.20;78.70;;;;;;4996031;28;20025;-75
2023/03/07 07:35:55;;;;;;;11.85;6.85;;;4.20;78.40;;;;;;4993509;28;20022;-75
2023/03/07 07:38:20;;;;;;;9.70;5.60;;;4.30;77.90;;;;;;4993333;28;20034;-76
2023/03/07 07:40:47;;;;;;;12.95;6.78;;;4.30;77.40;;;;;;5006831;28;20046;-76
2023/03/07 07:43:16;;;;;;;11.15;6.65;;;4.40;76.80;;;;;;5005465;28;20449;-73
2023/03/07 07:45:42;;;;;;;11.00;6.00;;;4.40;76.40;;;;;;4988930;28;20030;-74
2023/03/07 07:48:08;;;;;;;13.80;7.22;;;4.50;76.30;;;;;;4992181;28;20034;-74
2023/03/07 07:50:36;;;;;;;10.55;6.30;;;4.60;76.00;;;;;;4996597;28;20018;-77
2023/03/07 07:53:03;;;;;;;12.48;5.95;;;4.60;75.40;;;;;;5017421;28;20080;-77
2023/03/07 07:55:30;;;;;;;10.93;6.55;;;4.60;75.10;;;;;;4990786;28;20043;-75
2023/03/07 07:57:55;;;;;;;9.07;6.13;;;4.70;74.80;;;;;;4992273;28;20026;-75
2023/03/07 08:00:21;;;;;;;12.13;7.40;;;4.80;74.30;;;;;;4993052;28;20050;-75
2023/03/07 08:02:50;;;;;;;12.30;6.88;;;4.90;73.50;;;;;;4989968;28;20117;-75
2023/03/07 08:05:20;;;;;;;10.65;6.00;;;5.00;73.20;;;;;;5013868;28;20034;-77
2023/03/07 08:07:49;;;;;;;14.93;7.32;;;5.10;72.90;;;;;;4999330;28;20057;-75
2023/03/07 08:10:16;;;;;;;13.63;7.18;;;5.30;72.10;;;;;;4997111;28;20055;-76
2023/03/07 08:12:45;;;;;;;15.70;7.40;;;5.40;71.10;;;;;;4986369;28;20097;-76
2023/03/07 08:15:11;;;;;;;13.18;6.93;;;5.50;70.30;;;;;;4985151;28;20033;-77
2023/03/07 08:17:37;;;;;;;10.73;6.43;;;5.60;69.70;;;;;;5044894;23;20406;-77
2023/03/07 08:20:08;;;;;;;9.23;6.07;;;5.60;69.30;;;;;;5021569;28;20059;-77
2023/03/07 08:22:35;;;;;;;14.25;7.03;;;5.60;69.20;;;;;;4997572;28;20105;-77
2023/03/07 08:25:00;;;;;;;11.98;6.03;;;5.60;69.00;;;;;;4987058;28;20501;-77
2023/03/07 08:27:30;;;;;;;14.45;6.53;;;5.80;69.00;;;;;;4995510;28;20117;-77
2023/03/07 08:29:55;;;;;;;10.23;5.60;;;5.90;68.00;;;;;;4998141;28;20098;-78
2023/03/07 08:32:21;;;;;;;8.13;4.88;;;6.00;67.70;;;;;;4994977;28;20049;-77
2023/03/07 08:34:47;;;;;;;8.75;5.60;;;6.20;67.20;;;;;;5001362;28;20045;-76
2023/03/07 08:37:13;;;;;;;11.45;5.75;;;6.30;65.70;;;;;;5001437;28;20022;-76
2023/03/07 08:39:38;;;;;;;8.70;5.18;;;6.50;65.70;;;;;;5002770;28;20041;-76
2023/03/07 08:42:05;;;;;;;11.25;5.90;;;6.60;65.10;;;;;;5009380;28;20038;-76
2023/03/07 08:44:31;;;;;;;9.48;5.20;;;6.80;64.20;;;;;;5008300;28;20040;-76
2023/03/07 08:46:57;;;;;;;8.98;4.25;;;6.90;63.80;;;;;;5007195;28;20022;-78
2023/03/07 08:49:28;;;;;;;8.27;5.35;;;7.10;63.50;;;;;;5000398;28;20022;-79
2023/03/07 08:51:53;;;;;;;8.10;4.75;;;7.20;63.10;;;;;;5017861;28;20535;-77
2023/03/07 08:54:19;;;;;;;8.60;5.05;;;7.30;62.60;;;;;;4997816;28;20080;-78
2023/03/07 08:57:00;;;;;;;10.55;4.68;;;7.50;61.80;;;;;;5001114;28;20026;-78
2023/03/07 08:59:26;;;;;;;10.27;5.47;;;7.60;61.30;;;;;;4997936;28;20050;-76
2023/03/07 09:01:52;;;;;;;11.25;6.35;;;7.70;60.50;;;;;;4994445;28;20058;-78
2023/03/07 09:04:17;;;;;;;8.43;5.65;;;7.80;59.90;;;;;;4998069;28;20034;-78
2023/03/07 09:06:43;;;;;;;10.98;5.75;;;7.90;59.20;;;;;;4996228;28;20030;-78
2023/03/07 09:09:08;;;;;;;7.65;5.00;;;7.80;58.80;;;;;;4996338;28;20026;-77
2023/03/07 09:11:34;;;;;;;10.40;5.57;;;7.80;58.90;;;;;;5001496;28;20026;-77
2023/03/07 09:14:00;;;;;;;9.52;5.80;;;7.90;58.50;;;;;;4998834;28;20035;-76
2023/03/07 09:16:26;;;;;;;11.93;6.88;;;7.90;57.70;;;;;;4996538;28;20022;-78
2023/03/07 09:18:51;;;;;;;11.82;6.30;;;7.90;57.30;;;;;;5004132;28;20111;-77
2023/03/07 09:21:17;;;;;;;10.70;6.15;;;7.90;57.20;;;;;;5004538;28;20034;-78
2023/03/07 09:23:42;;;;;;;10.77;6.70;;;7.90;57.30;;;;;;4997291;28;20030;-78
2023/03/07 09:26:09;;;;;;;12.20;5.38;;;8.00;57.40;;;;;;4997408;28;20049;-77
2023/03/07 09:28:35;;;;;;;9.60;5.38;;;8.10;57.20;;;;;;4998432;28;20029;-78
2023/03/07 09:31:06;;;;;;;11.95;6.32;;;8.20;57.30;;;;;;4999019;28;20030;-78
2023/03/07 09:33:32;;;;;;;8.95;5.93;;;8.40;56.40;;;;;;4997632;28;20049;-78
2023/03/07 09:36:00;;;;;;;11.00;6.10;;;8.50;56.50;;;;;;4996212;28;20022;-77
2023/03/07 09:38:29;;;;;;;11.27;6.10;;;8.60;55.10;;;;;;4996921;28;20160;-77
2023/03/07 09:41:03;;;;;;;10.90;5.85;;;8.60;55.80;;;;;;4998995;28;20031;-79
2023/03/07 09:43:43;;;;;;;14.43;5.95;;;8.50;55.90;;;;;;4984358;28;20479;-78
2023/03/07 09:46:27;;;;;;;10.77;6.18;;;8.60;56.00;;;;;;5000092;28;20040;-79
2023/03/07 09:49:14;;;;;;;11.52;6.13;;;8.60;55.30;;;;;;5007887;28;20026;-78
2023/03/07 09:51:42;;;;;;;9.63;6.22;;;8.70;55.40;;;;;;5007583;28;20030;-78
2023/03/07 09:54:20;;;;;;;18.45;7.20;;;8.80;54.70;;;;;;5000147;28;20057;-77
2023/03/07 09:56:53;;;;;;;15.57;6.68;;;9.00;54.20;;;;;;4998917;28;20030;-77
2023/03/07 09:59:40;;;;;;;10.60;5.97;;;9.00;54.40;;;;;;4999873;28;20102;-78
2023/03/07 10:02:58;;;;;;;11.85;6.88;;;9.20;54.30;;;;;;4980766;28;20475;-77
2023/03/07 10:05:41;;;;;;;11.55;6.60;;;9.30;52.20;;;;;;4983958;28;20618;-78
2023/03/07 10:08:16;;;;;;;11.60;6.70;;;9.20;53.00;;;;;;5007097;28;20044;-77
2023/03/07 10:10:52;;;;;;;14.50;7.35;;;9.20;52.70;;;;;;5006433;28;20069;-78
2023/03/07 10:13:43;;;;;;;13.73;6.78;;;9.10;52.80;;;;;;5005418;28;20071;-77
2023/03/07 10:16:22;;;;;;;8.77;5.93;;;9.10;52.70;;;;;;5016471;28;20026;-77
2023/03/07 10:19:00;;;;;;;11.15;6.85;;;9.10;53.40;;;;;;5000016;28;20030;-78
2023/03/07 10:21:59;;;;;;;14.57;6.82;;;9.10;53.30;;;;;;5013036;28;20034;-78
2023/03/07 10:24:59;;;;;;;15.15;7.03;;;8.90;53.30;;;;;;5030749;28;20037;-79
2023/03/07 10:27:27;;;;;;;12.35;6.82;;;9.10;53.40;;;;;;4998665;28;20042;-80
2023/03/07 10:29:55;;;;;;;12.07;6.03;;;9.10;53.80;;;;;;5003894;28;20011;-78
2023/03/07 10:32:29;;;;;;;10.93;6.10;;;9.00;54.20;;;;;;5005437;28;20065;-79
2023/03/07 10:35:23;;;;;;;12.43;6.97;;;8.80;54.20;;;;;;5016591;28;20022;-79
2023/03/07 10:37:57;;;;;;;11.63;6.38;;;8.60;54.00;;;;;;4998179;28;20033;-77
2023/03/07 10:40:32;;;;;;;16.58;7.28;;;8.60;54.50;;;;;;4998721;28;20026;-78
2023/03/07 10:42:59;;;;;;;14.43;6.28;;;8.60;53.50;;;;;;4999453;28;20064;-78
2023/03/07 10:45:29;;;;;;;11.27;6.55;;;8.60;53.60;;;;;;4999222;28;20558;-78
2023/03/07 10:47:59;;;;;;;15.63;7.25;;;8.80;53.30;;;;;;5002068;28;20129;-77
2023/03/07 10:50:32;;;;;;;16.88;7.45;;;9.10;52.80;;;;;;5011152;28;20077;-77
2023/03/07 10:53:02;;;;;;;12.68;6.63;;;9.30;52.20;;;;;;5002513;28;20070;-78
2023/03/07 10:55:42;;;;;;;9.82;5.63;;;9.60;52.10;;;;;;4997463;28;20050;-78
2023/03/07 10:58:14;;;;;;;13.05;7.05;;;9.70;51.70;;;;;;4998102;28;20022;-77
2023/03/07 11:00:43;;;;;;;13.68;7.60;;;9.70;51.10;;;;;;5002293;28;20078;-77
2023/03/07 11:03:49;;;;;;;13.82;6.45;;;9.30;50.50;;;;;;5008218;28;20038;-79
2023/03/07 11:06:29;;;;;;;14.02;6.82;;;9.00;52.20;;;;;;4992452;28;20524;-78
2023/03/07 11:08:57;;;;;;;13.70;6.65;;;9.10;52.30;;;;;;5003188;28;20372;-78
2023/03/07 11:11:29;;;;;;;9.27;5.05;;;9.20;52.50;;;;;;5003643;28;20029;-81
2023/03/07 11:14:08;;;;;;;11.70;7.18;;;9.30;52.70;;;;;;5021319;28;20022;-78
2023/03/07 11:16:42;;;;;;;13.10;7.45;;;9.50;52.20;;;;;;5002978;28;20022;-77
2023/03/07 11:19:34;;;;;;;14.40;8.68;;;9.60;51.80;;;;;;5020338;28;20549;-78
2023/03/07 11:22:22;;;;;;;10.52;6.53;;;9.60;51.30;;;;;;4997568;28;20027;-79
2023/03/07 11:25:13;;;;;;;11.00;6.70;;;9.60;51.90;;;;;;4994719;28;20528;-78
2023/03/07 11:27:50;;;;;;;11.65;6.90;;;9.60;52.10;;;;;;4995391;28;20482;-76
2023/03/07 11:30:18;;;;;;;11.63;6.90;;;9.70;51.50;;;;;;4997375;28;20526;-78
2023/03/07 11:32:52;;;;;;;12.05;6.22;;;9.80;51.90;;;;;;4996922;28;20033;-78
2023/03/07 11:35:29;;;;;;;13.80;6.85;;;9.70;51.90;;;;;;4999117;28;20096;-77
2023/03/07 11:38:12;;;;;;;11.70;6.97;;;9.60;52.10;;;;;;5001239;28;20391;-76
2023/03/07 11:41:10;;;;;;;11.45;6.57;;;9.70;52.00;;;;;;5002376;28;20471;-77
2023/03/07 11:43:43;;;;;;;15.85;8.32;;;9.80;52.30;;;;;;4997408;28;20037;-78
2023/03/07 11:46:21;;;;;;;10.77;7.22;;;9.80;51.90;;;;;;5011270;28;20463;-77
2023/03/07 11:48:58;;;;;;;11.00;7.15;;;10.00;51.40;;;;;;4996586;28;20034;-81
2023/03/07 11:51:43;;;;;;;12.93;7.30;;;10.10;51.70;;;;;;4998057;28;20018;-79
2023/03/07 11:54:36;;;;;;;11.13;6.28;;;10.00;51.50;;;;;;4999466;28;20027;-79
2023/03/07 11:57:14;;;;;;;12.82;7.75;;;9.80;52.10;;;;;;5005426;28;20106;-80
2023/03/07 11:59:53;;;;;;;10.75;5.80;;;10.00;51.80;;;;;;5000541;28;20022;-77
2023/03/07 12:02:34;;;;;;;11.25;7.38;;;10.00;51.80;;;;;;4997089;28;20409;-80
2023/03/07 12:05:24;;;;;;;15.05;8.32;;;9.80;51.60;;;;;;5002752;28;20034;-80
2023/03/07 12:08:20;;;;;;;13.25;6.88;;;9.30;52.10;;;;;;5003888;28;20061;-80
2023/03/07 12:10:46;;;;;;;12.70;6.85;;;9.00;53.00;;;;;;5006990;28;20025;-80
2023/03/07 12:13:31;;;;;;;10.23;5.85;;;9.00;53.80;;;;;;5025801;28;20054;-79
2023/03/07 12:15:57;;;;;;;10.82;6.65;;;9.30;53.80;;;;;;5001961;28;20027;-80
2023/03/07 12:19:17;;;;;;;12.63;6.50;;;9.50;52.90;;;;;;5018619;28;20069;-80
2023/03/07 12:21:49;;;;;;;13.75;8.32;;;9.60;52.30;;;;;;4954052;29;20032;-80
2023/03/07 12:24:24;;;;;;;12.30;6.83;;;9.60;52.20;;;;;;4991239;28;20148;-80
2023/03/07 12:26:59;;;;;;;11.68;6.82;;;9.60;52.50;;;;;;5002470;28;20270;-79
2023/03/07 12:29:38;;;;;;;9.45;6.30;;;9.70;52.30;;;;;;5002575;28;20495;-80
2023/03/07 12:32:23;;;;;;;9.90;7.28;;;9.70;52.50;;;;;;5001685;28;20026;-80
2023/03/07 12:34:56;;;;;;;13.25;7.53;;;9.80;52.10;;;;;;5001085;28;20046;-78
2023/03/07 12:37:29;;;;;;;11.00;6.47;;;9.90;51.40;;;;;;5002298;28;20045;-79
2023/03/07 12:39:59;;;;;;;11.38;7.32;;;10.00;52.00;;;;;;5000071;28;20041;-80
2023/03/07 12:42:33;;;;;;;11.43;6.95;;;10.10;51.60;;;;;;5001799;28;20042;-80
2023/03/07 12:45:09;;;;;;;10.85;5.47;;;10.20;51.40;;;;;;5002170;28;20080;-80
2023/03/07 12:47:56;;;;;;;11.25;7.00;;;10.40;51.50;;;;;;5016311;28;20018;-80
2023/03/07 12:50:58;;;;;;;10.48;6.15;;;10.50;50.80;;;;;;5003707;28;20424;-78
2023/03/07 12:53:27;;;;;;;;;;;10.60;50.70;;;;;;5003755;28;20141;-79
2023/03/07 12:56:06;;;;;;;9.07;6.00;;;10.60;50.70;;;;;;5001262;28;19913;-79
2023/03/07 12:58:55;;;;;;;12.73;6.53;;;10.70;50.10;;;;;;5001434;28;20427;-80
2023/03/07 13:01:33;;;;;;;11.60;6.93;;;10.60;49.80;;;;;;5000790;28;20446;-81
2023/03/07 13:04:23;;;;;;;10.30;5.60;;;10.50;49.70;;;;;;5008098;28;20042;-79
2023/03/07 13:06:50;;;;;;;11.02;7.07;;;10.50;49.80;;;;;;5002845;28;20037;-79
2023/03/07 13:09:20;;;;;;;11.50;7.13;;;10.50;49.60;;;;;;5008192;28;20040;-79